createdAt,value
2018-05-21T00:01:02.095Z,100499
2018-05-21T00:02:06.695Z,100502
2018-05-21T00:03:11.939Z,100496
2018-05-21T00:04:17.154Z,100502
2018-05-21T00:05:22.035Z,100496
2018-05-21T00:06:27.486Z,100499
2018-05-21T00:07:33.185Z,100493
2018-05-21T00:08:38.334Z,100493
2018-05-21T00:09:43.219Z,100493
2018-05-21T00:10:48.373Z,100502
2018-05-21T00:11:53.805Z,100505
2018-05-21T00:12:59.546Z,100507
2018-05-21T00:14:04.987Z,100499
2018-05-21T00:15:10.428Z,100507
2018-05-21T00:16:15.989Z,100493
2018-05-21T00:17:20.870Z,100496
2018-05-21T00:18:26.161Z,100502
2018-05-21T00:19:31.605Z,100502
2018-05-21T00:20:37.035Z,100499
2018-05-21T00:21:42.924Z,100499
2018-05-21T00:22:48.360Z,100496
2018-05-21T00:23:53.516Z,100502
2018-05-21T00:24:58.374Z,100507
2018-05-21T00:26:03.248Z,100507
2018-05-21T00:27:07.260Z,100502
2018-05-21T00:28:12.145Z,100499
2018-05-21T00:29:17.581Z,100502
2018-05-21T00:30:22.462Z,100499
2018-05-21T00:31:28.705Z,100496
2018-05-21T00:32:33.586Z,100496
2018-05-21T00:33:39.436Z,100507
2018-05-21T00:34:44.585Z,100490
2018-05-21T00:35:49.731Z,100496
2018-05-21T00:36:55.241Z,100496
2018-05-21T00:38:00.691Z,100493
2018-05-21T00:39:05.556Z,100487
2018-05-21T00:40:10.778Z,100490
2018-05-21T00:41:15.650Z,100490
2018-05-21T00:42:20.513Z,100490
2018-05-21T00:43:26.250Z,100487
2018-05-21T00:44:31.683Z,100493
2018-05-21T00:45:36.892Z,100481
2018-05-21T00:46:42.331Z,100493
2018-05-21T00:47:47.483Z,100484
2018-05-21T00:48:53.272Z,100476
2018-05-21T00:49:57.856Z,100499
2018-05-21T00:51:02.717Z,100487
2018-05-21T00:52:08.216Z,100487
2018-05-21T00:53:13.698Z,100493
2018-05-21T00:54:18.309Z,100490
2018-05-21T00:55:24.251Z,100478
2018-05-21T00:56:29.132Z,100490
2018-05-21T00:57:34.861Z,100478
2018-05-21T00:58:40.293Z,100476
2018-05-21T00:59:45.161Z,100487
2018-05-21T01:00:50.997Z,100478
2018-05-21T01:01:56.434Z,100465
2018-05-21T01:03:01.920Z,100487
2018-05-21T01:04:07.330Z,100481
2018-05-21T01:05:12.506Z,100478
2018-05-21T01:06:17.400Z,100476
2018-05-21T01:07:23.238Z,100476
2018-05-21T01:08:28.401Z,100478
2018-05-21T01:09:33.961Z,100471
2018-05-21T01:10:39.125Z,100465
2018-05-21T01:11:44.286Z,100473
2018-05-21T01:12:49.683Z,100468
2018-05-21T01:13:55.113Z,100462
2018-05-21T01:14:59.707Z,100459
2018-05-21T01:16:05.226Z,100456
2018-05-21T01:17:10.666Z,100468
2018-05-21T01:18:15.830Z,100473
2018-05-21T01:19:21.579Z,100471
2018-05-21T01:20:26.460Z,100473
2018-05-21T01:21:31.578Z,100476
2018-05-21T01:22:36.771Z,100478
2018-05-21T01:23:42.213Z,100476
2018-05-21T01:24:48.043Z,100476
2018-05-21T01:25:52.898Z,100481
2018-05-21T01:26:58.048Z,100478
2018-05-21T01:28:03.497Z,100478
2018-05-21T01:29:08.640Z,100478
2018-05-21T01:30:13.221Z,100473
2018-05-21T01:31:18.827Z,100476
2018-05-21T01:32:23.686Z,100471
2018-05-21T01:33:28.719Z,100468
2018-05-21T01:34:34.164Z,100476
2018-05-21T01:35:39.111Z,100462
2018-05-21T01:36:44.490Z,100465
2018-05-21T01:37:49.643Z,100468
2018-05-21T01:38:54.843Z,100462
2018-05-21T01:40:00.682Z,100465
2018-05-21T01:41:05.007Z,100465
2018-05-21T01:42:09.325Z,100470
2018-05-21T01:43:14.213Z,100465
2018-05-21T01:44:19.659Z,100470
2018-05-21T01:45:40.040Z,100465
2018-05-21T01:46:45.478Z,100473
2018-05-21T01:47:50.918Z,100462
2018-05-21T01:48:56.622Z,100465
2018-05-21T01:50:01.209Z,100462
2018-05-21T01:51:05.800Z,100459
2018-05-21T01:52:10.979Z,100462
2018-05-21T01:53:16.425Z,100459
2018-05-21T01:54:21.003Z,100468
2018-05-21T01:55:25.608Z,100462
2018-05-21T01:56:31.061Z,100462
2018-05-21T01:57:36.567Z,100465
2018-05-21T01:58:41.719Z,100459
2018-05-21T01:59:46.872Z,100456
2018-05-21T02:00:52.333Z,100456
2018-05-21T02:01:57.778Z,100453
2018-05-21T02:03:02.080Z,100447
2018-05-21T02:04:06.755Z,100456
2018-05-21T02:05:11.911Z,100453
2018-05-21T02:06:17.344Z,100447
2018-05-21T02:07:22.895Z,100447
2018-05-21T02:08:28.065Z,100450
2018-05-21T02:09:33.963Z,100450
2018-05-21T02:10:39.412Z,100447
2018-05-21T02:11:44.856Z,100447
2018-05-21T02:12:50.350Z,100444
2018-05-21T02:13:55.792Z,100444
2018-05-21T02:15:01.234Z,100436
2018-05-21T02:16:06.933Z,100438
2018-05-21T02:17:12.371Z,100438
2018-05-21T02:18:17.239Z,100430
2018-05-21T02:19:22.408Z,100433
2018-05-21T02:20:27.561Z,100427
2018-05-21T02:21:33.413Z,100436
2018-05-21T02:22:38.010Z,100433
2018-05-21T02:23:43.174Z,100430
2018-05-21T02:24:48.303Z,100438
2018-05-21T02:25:53.472Z,100436
2018-05-21T02:26:59.126Z,100436
2018-05-21T02:28:04.217Z,100430
2018-05-21T02:29:09.391Z,100438
2018-05-21T02:30:14.535Z,100433
2018-05-21T02:31:19.994Z,100438
2018-05-21T02:32:25.147Z,100438
2018-05-21T02:33:31.027Z,100433
2018-05-21T02:34:36.170Z,100444
2018-05-21T02:35:41.044Z,100436
2018-05-21T02:36:46.447Z,100430
2018-05-21T02:37:51.881Z,100436
2018-05-21T02:38:57.027Z,100436
2018-05-21T02:40:02.438Z,100441
2018-05-21T02:41:07.594Z,100441
2018-05-21T02:42:12.754Z,100435
2018-05-21T02:43:18.206Z,100436
2018-05-21T02:44:23.091Z,100427
2018-05-21T02:45:29.104Z,100433
2018-05-21T02:46:33.985Z,100435
2018-05-21T02:47:39.125Z,100427
2018-05-21T02:48:44.855Z,100435
2018-05-21T02:49:50.049Z,100430
2018-05-21T02:50:55.208Z,100427
2018-05-21T02:52:00.939Z,100433
2018-05-21T02:53:05.857Z,100433
2018-05-21T02:54:10.733Z,100424
2018-05-21T02:55:15.872Z,100418
2018-05-21T02:56:21.379Z,100433
2018-05-21T02:57:27.384Z,100415
2018-05-21T02:58:32.815Z,100430
2018-05-21T02:59:37.686Z,100412
2018-05-21T03:00:43.288Z,100424
2018-05-21T03:01:48.727Z,100427
2018-05-21T03:02:53.364Z,100421
2018-05-21T03:03:58.821Z,100418
2018-05-21T03:05:03.971Z,100421
2018-05-21T03:06:09.413Z,100418
2018-05-21T03:07:14.738Z,100424
2018-05-21T03:08:19.893Z,100430
2018-05-21T03:09:25.151Z,100427
2018-05-21T03:10:29.814Z,100424
2018-05-21T03:11:34.972Z,100430
2018-05-21T03:12:40.478Z,100427
2018-05-21T03:13:45.908Z,100418
2018-05-21T03:14:51.064Z,100432
2018-05-21T03:15:56.787Z,100412
2018-05-21T03:17:01.663Z,100412
2018-05-21T03:18:06.235Z,100427
2018-05-21T03:19:11.678Z,100415
2018-05-21T03:20:16.841Z,100403
2018-05-21T03:21:21.993Z,100409
2018-05-21T03:22:27.731Z,100409
2018-05-21T03:23:32.611Z,100415
2018-05-21T03:24:37.834Z,100412
2018-05-21T03:25:42.702Z,100412
2018-05-21T03:26:48.149Z,100406
2018-05-21T03:27:54.188Z,100418
2018-05-21T03:28:59.334Z,100406
2018-05-21T03:30:04.496Z,100415
2018-05-21T03:31:09.959Z,100403
2018-05-21T03:32:15.413Z,100415
2018-05-21T03:33:20.853Z,100406
2018-05-21T03:34:41.527Z,100403
2018-05-21T03:35:46.714Z,100409
2018-05-21T03:36:52.275Z,100400
2018-05-21T03:37:57.701Z,100409
2018-05-21T03:39:02.578Z,100400
2018-05-21T03:40:08.187Z,100406
2018-05-21T03:41:13.342Z,100403
2018-05-21T03:42:18.493Z,100400
2018-05-21T03:43:23.907Z,100403
2018-05-21T03:44:29.074Z,100409
2018-05-21T03:45:34.634Z,100406
2018-05-21T03:46:39.541Z,100400
2018-05-21T03:47:44.999Z,100412
2018-05-21T03:48:50.745Z,100403
2018-05-21T03:49:55.610Z,100401
2018-05-21T03:51:00.210Z,100406
2018-05-21T03:52:05.039Z,100400
2018-05-21T03:53:09.927Z,100400
2018-05-21T03:54:14.255Z,100406
2018-05-21T03:55:19.662Z,100406
2018-05-21T03:56:24.865Z,100395
2018-05-21T03:57:30.796Z,100403
2018-05-21T03:58:35.940Z,100403
2018-05-21T03:59:41.094Z,100392
2018-05-21T04:00:46.549Z,100395
2018-05-21T04:01:52.091Z,100397
2018-05-21T04:02:57.537Z,100389
2018-05-21T04:04:02.808Z,100400
2018-05-21T04:05:07.964Z,100400
2018-05-21T04:06:13.125Z,100392
2018-05-21T04:07:18.821Z,100406
2018-05-21T04:08:24.282Z,100406
2018-05-21T04:09:29.921Z,100406
2018-05-21T04:10:35.356Z,100409
2018-05-21T04:11:40.222Z,100403
2018-05-21T04:12:46.060Z,100403
2018-05-21T04:13:51.496Z,100403
2018-05-21T04:14:56.649Z,100406
2018-05-21T04:16:01.812Z,100412
2018-05-21T04:17:06.129Z,100398
2018-05-21T04:18:10.983Z,100412
2018-05-21T04:19:16.479Z,100412
2018-05-21T04:20:21.078Z,100403
2018-05-21T04:21:27.255Z,100395
2018-05-21T04:22:32.674Z,100406
2018-05-21T04:23:38.109Z,100406
2018-05-21T04:24:43.513Z,100409
2018-05-21T04:25:48.952Z,100406
2018-05-21T04:26:54.104Z,100415
2018-05-21T04:27:59.597Z,100412
2018-05-21T04:29:04.467Z,100409
2018-05-21T04:30:09.669Z,100406
2018-05-21T04:31:15.052Z,100406
2018-05-21T04:32:20.489Z,100403
2018-05-21T04:33:25.954Z,100398
2018-05-21T04:34:31.399Z,100403
2018-05-21T04:35:36.555Z,100421
2018-05-21T04:36:42.389Z,100403
2018-05-21T04:37:47.817Z,100409
2018-05-21T04:38:52.972Z,100412
2018-05-21T04:39:58.588Z,100409
2018-05-21T04:41:02.899Z,100403
2018-05-21T04:42:08.374Z,100415
2018-05-21T04:43:13.644Z,100398
2018-05-21T04:44:19.080Z,100400
2018-05-21T04:45:23.945Z,100403
2018-05-21T04:46:30.006Z,100406
2018-05-21T04:47:35.475Z,100397
2018-05-21T04:48:40.747Z,100406
2018-05-21T04:49:46.183Z,100403
2018-05-21T04:50:51.637Z,100415
2018-05-21T04:51:57.084Z,100409
2018-05-21T04:53:02.242Z,100400
2018-05-21T04:54:07.109Z,100392
2018-05-21T04:55:12.364Z,100398
2018-05-21T04:56:17.821Z,100400
2018-05-21T04:57:23.249Z,100400
2018-05-21T04:58:43.498Z,100406
2018-05-21T04:59:48.933Z,100415
2018-05-21T05:00:54.816Z,100403
2018-05-21T05:01:59.419Z,100401
2018-05-21T05:03:04.575Z,100401
2018-05-21T05:04:10.466Z,100392
2018-05-21T05:05:15.908Z,100406
2018-05-21T05:06:21.356Z,100395
2018-05-21T05:07:41.471Z,100401
2018-05-21T05:08:46.629Z,100392
2018-05-21T05:09:52.370Z,100392
2018-05-21T05:10:57.531Z,100401
2018-05-21T05:12:02.385Z,100403
2018-05-21T05:13:07.503Z,100404
2018-05-21T05:14:12.675Z,100398
2018-05-21T05:15:17.849Z,100395
2018-05-21T05:16:23.403Z,100398
2018-05-21T05:17:28.280Z,100404
2018-05-21T05:18:33.684Z,100392
2018-05-21T05:19:39.116Z,100398
2018-05-21T05:20:44.282Z,100395
2018-05-21T05:21:50.168Z,100398
2018-05-21T05:22:54.767Z,100404
2018-05-21T05:23:59.928Z,100395
2018-05-21T05:25:05.485Z,100398
2018-05-21T05:26:10.642Z,100398
2018-05-21T05:27:15.511Z,100398
2018-05-21T05:28:20.934Z,100398
2018-05-21T05:29:25.881Z,100389
2018-05-21T05:30:31.863Z,100395
2018-05-21T05:31:37.015Z,100383
2018-05-21T05:32:41.616Z,100389
2018-05-21T05:33:47.118Z,100392
2018-05-21T05:34:51.983Z,100392
2018-05-21T05:35:57.148Z,100392
2018-05-21T05:37:02.972Z,100398
2018-05-21T05:38:08.115Z,100395
2018-05-21T05:39:13.272Z,100395
2018-05-21T05:40:18.717Z,100383
2018-05-21T05:41:23.861Z,100401
2018-05-21T05:42:29.468Z,100398
2018-05-21T05:43:34.901Z,100386
2018-05-21T05:44:40.364Z,100392
2018-05-21T05:45:45.870Z,100386
2018-05-21T05:46:50.459Z,100392
2018-05-21T05:47:55.315Z,100398
2018-05-21T05:49:00.309Z,100383
2018-05-21T05:50:05.477Z,100392
2018-05-21T05:51:10.908Z,100383
2018-05-21T05:52:16.445Z,100395
2018-05-21T05:53:21.612Z,100380
2018-05-21T05:54:27.456Z,100392
2018-05-21T05:55:32.900Z,100395
2018-05-21T05:56:38.063Z,100395
2018-05-21T05:57:43.527Z,100392
2018-05-21T05:58:48.682Z,100395
2018-05-21T05:59:54.125Z,100383
2018-05-21T06:00:59.351Z,100389
2018-05-21T06:02:04.499Z,100383
2018-05-21T06:03:09.942Z,100383
2018-05-21T06:04:15.615Z,100389
2018-05-21T06:05:20.498Z,100380
2018-05-21T06:06:25.638Z,100383
2018-05-21T06:07:30.782Z,100389
2018-05-21T06:08:36.214Z,100392
2018-05-21T06:09:41.662Z,100398
2018-05-21T06:10:47.106Z,100401
2018-05-21T06:11:52.259Z,100380
2018-05-21T06:12:57.703Z,100380
2018-05-21T06:14:02.576Z,100380
2018-05-21T06:15:07.165Z,100389
2018-05-21T06:16:12.337Z,100386
2018-05-21T06:17:17.487Z,100386
2018-05-21T06:18:22.917Z,100383
2018-05-21T06:19:27.863Z,100392
2018-05-21T06:20:33.022Z,100392
2018-05-21T06:21:38.426Z,100395
2018-05-21T06:22:43.587Z,100383
2018-05-21T06:23:48.461Z,100383
2018-05-21T06:24:53.916Z,100386
2018-05-21T06:25:59.231Z,100392
2018-05-21T06:27:04.996Z,100386
2018-05-21T06:28:10.474Z,100375
2018-05-21T06:29:15.904Z,100378
2018-05-21T06:30:21.351Z,100380
2018-05-21T06:31:26.765Z,100383
2018-05-21T06:32:31.918Z,100386
2018-05-21T06:33:37.724Z,100369
2018-05-21T06:34:42.880Z,100381
2018-05-21T06:35:48.032Z,100380
2018-05-21T06:36:53.482Z,100375
2018-05-21T06:37:58.638Z,100375
2018-05-21T06:39:03.598Z,100375
2018-05-21T06:40:09.168Z,100375
2018-05-21T06:41:14.040Z,100372
2018-05-21T06:42:19.207Z,100375
2018-05-21T06:43:24.819Z,100375
2018-05-21T06:44:30.262Z,100366
2018-05-21T06:45:35.152Z,100360
2018-05-21T06:46:40.311Z,100366
2018-05-21T06:47:45.026Z,100381
2018-05-21T06:48:50.658Z,100366
2018-05-21T06:49:55.823Z,100372
2018-05-21T06:51:00.986Z,100366
2018-05-21T06:52:06.106Z,100363
2018-05-21T06:53:10.962Z,100360
2018-05-21T06:54:16.403Z,100357
2018-05-21T06:55:22.135Z,100360
2018-05-21T06:56:27.565Z,100357
2018-05-21T06:57:33.161Z,100360
2018-05-21T06:58:38.592Z,100354
2018-05-21T06:59:43.852Z,100349
2018-05-21T07:00:49.760Z,100354
2018-05-21T07:01:54.908Z,100354
2018-05-21T07:03:00.060Z,100340
2018-05-21T07:04:05.286Z,100357
2018-05-21T07:05:10.725Z,100357
2018-05-21T07:06:15.889Z,100354
2018-05-21T07:07:21.068Z,100360
2018-05-21T07:08:26.247Z,100354
2018-05-21T07:09:32.185Z,100346
2018-05-21T07:10:37.352Z,100354
2018-05-21T07:11:42.786Z,100360
2018-05-21T07:12:48.517Z,100352
2018-05-21T07:13:53.403Z,100346
2018-05-21T07:14:58.837Z,100354
2018-05-21T07:16:04.387Z,100346
2018-05-21T07:17:09.330Z,100346
2018-05-21T07:18:14.570Z,100340
2018-05-21T07:19:20.110Z,100349
2018-05-21T07:20:24.986Z,100354
2018-05-21T07:21:30.692Z,100343
2018-05-21T07:22:35.550Z,100337
2018-05-21T07:23:40.999Z,100349
2018-05-21T07:24:46.874Z,100343
2018-05-21T07:25:52.294Z,100349
2018-05-21T07:26:57.159Z,100352
2018-05-21T07:28:02.327Z,100343
2018-05-21T07:29:07.272Z,100343
2018-05-21T07:30:12.138Z,100343
2018-05-21T07:31:17.890Z,100343
2018-05-21T07:32:23.070Z,100332
2018-05-21T07:33:28.832Z,100337
2018-05-21T07:34:33.986Z,100337
2018-05-21T07:35:39.458Z,100335
2018-05-21T07:36:45.141Z,100323
2018-05-21T07:37:50.303Z,100312
2018-05-21T07:38:55.735Z,100318
2018-05-21T07:40:01.345Z,100323
2018-05-21T07:41:05.661Z,100326
2018-05-21T07:42:10.852Z,100332
2018-05-21T07:43:16.307Z,100321
2018-05-21T07:44:21.458Z,100323
2018-05-21T07:45:27.304Z,100332
2018-05-21T07:46:31.898Z,100321
2018-05-21T07:47:37.354Z,100323
2018-05-21T07:48:42.583Z,100326
2018-05-21T07:49:47.449Z,100323
2018-05-21T07:50:52.880Z,100321
2018-05-21T07:51:58.715Z,100321
2018-05-21T07:53:03.571Z,100323
2018-05-21T07:54:09.060Z,100312
2018-05-21T07:55:14.101Z,100309
2018-05-21T07:56:19.531Z,100318
2018-05-21T07:57:39.632Z,100318
2018-05-21T07:58:44.793Z,100315
2018-05-21T07:59:49.669Z,100318
2018-05-21T08:00:54.858Z,100315
2018-05-21T08:02:00.015Z,100315
2018-05-21T08:03:04.995Z,100312
2018-05-21T08:04:10.455Z,100312
2018-05-21T08:05:16.163Z,100300
2018-05-21T08:06:21.469Z,100312
2018-05-21T08:07:26.885Z,100309
2018-05-21T08:08:32.330Z,100321
2018-05-21T08:09:37.947Z,100303
2018-05-21T08:10:43.102Z,100309
2018-05-21T08:11:48.532Z,100315
2018-05-21T08:12:53.902Z,100303
2018-05-21T08:13:59.080Z,100297
2018-05-21T08:15:03.947Z,100297
2018-05-21T08:16:09.645Z,100303
2018-05-21T08:17:14.815Z,100294
2018-05-21T08:18:19.968Z,100292
2018-05-21T08:19:25.385Z,100294
2018-05-21T08:20:29.987Z,100294
2018-05-21T08:21:35.164Z,100289
2018-05-21T08:22:40.595Z,100284
2018-05-21T08:23:46.036Z,100292
2018-05-21T08:24:51.261Z,100297
2018-05-21T08:25:56.759Z,100284
2018-05-21T08:27:01.647Z,100284
2018-05-21T08:28:06.789Z,100284
2018-05-21T08:29:11.656Z,100275
2018-05-21T08:30:17.125Z,100287
2018-05-21T08:31:22.869Z,100284
2018-05-21T08:32:28.301Z,100292
2018-05-21T08:33:34.033Z,100275
2018-05-21T08:34:39.491Z,100294
2018-05-21T08:35:44.365Z,100287
2018-05-21T08:36:50.247Z,100281
2018-05-21T08:37:55.393Z,100287
2018-05-21T08:39:00.548Z,100287
2018-05-21T08:40:06.619Z,100272
2018-05-21T08:41:11.484Z,100287
2018-05-21T08:42:16.628Z,100281
2018-05-21T08:43:22.201Z,100281
2018-05-21T08:44:26.812Z,100287
2018-05-21T08:45:32.272Z,100278
2018-05-21T08:46:37.707Z,100284
2018-05-21T08:47:43.139Z,100284
2018-05-21T08:48:48.303Z,100287
2018-05-21T08:49:53.772Z,100278
2018-05-21T08:50:58.925Z,100272
2018-05-21T08:52:04.324Z,100278
2018-05-21T08:53:09.471Z,100289
2018-05-21T08:54:14.372Z,100266
2018-05-21T08:55:19.909Z,100269
2018-05-21T08:56:24.786Z,100266
2018-05-21T08:57:31.177Z,100284
2018-05-21T08:58:36.629Z,100261
2018-05-21T08:59:42.192Z,100269
2018-05-21T09:00:47.365Z,100272
2018-05-21T09:01:52.513Z,100261
2018-05-21T09:02:57.946Z,100269
2018-05-21T09:04:02.641Z,100264
2018-05-21T09:05:08.068Z,100266
2018-05-21T09:06:13.234Z,100258
2018-05-21T09:07:19.049Z,100266
2018-05-21T09:08:24.482Z,100258
2018-05-21T09:09:30.317Z,100252
2018-05-21T09:10:35.471Z,100255
2018-05-21T09:11:40.619Z,100240
2018-05-21T09:12:46.355Z,100240
2018-05-21T09:13:51.223Z,100243
2018-05-21T09:14:56.654Z,100246
2018-05-21T09:16:01.802Z,100240
2018-05-21T09:17:07.009Z,100232
2018-05-21T09:18:12.153Z,100243
2018-05-21T09:19:17.937Z,100237
2018-05-21T09:20:23.095Z,100243
2018-05-21T09:21:28.935Z,100243
2018-05-21T09:22:34.503Z,100237
2018-05-21T09:23:39.868Z,100234
2018-05-21T09:24:45.322Z,100237
2018-05-21T09:25:50.484Z,100229
2018-05-21T09:26:56.003Z,100240
2018-05-21T09:28:01.597Z,100234
2018-05-21T09:29:06.749Z,100229
2018-05-21T09:30:11.916Z,100232
2018-05-21T09:31:17.278Z,100237
2018-05-21T09:32:23.046Z,100232
2018-05-21T09:33:29.047Z,100234
2018-05-21T09:34:33.922Z,100232
2018-05-21T09:35:38.803Z,100232
2018-05-21T09:36:44.685Z,100237
2018-05-21T09:37:49.274Z,100237
2018-05-21T09:38:54.419Z,100232
2018-05-21T09:39:59.916Z,100237
2018-05-21T09:41:05.064Z,100234
2018-05-21T09:42:10.384Z,100237
2018-05-21T09:43:15.705Z,100229
2018-05-21T09:44:20.850Z,100240
2018-05-21T09:45:26.327Z,100229
2018-05-21T09:46:30.911Z,100235
2018-05-21T09:47:36.077Z,100237
2018-05-21T09:48:41.840Z,100232
2018-05-21T09:49:47.165Z,100235
2018-05-21T09:50:52.054Z,100235
2018-05-21T09:51:57.220Z,100235
2018-05-21T09:53:02.667Z,100229
2018-05-21T09:54:07.549Z,100226
2018-05-21T09:55:13.490Z,100220
2018-05-21T09:56:18.361Z,100223
2018-05-21T09:57:23.797Z,100205
2018-05-21T09:58:44.060Z,100217
2018-05-21T09:59:49.218Z,100223
2018-05-21T10:00:54.928Z,100211
2018-05-21T10:02:00.684Z,100217
2018-05-21T10:03:05.829Z,100211
2018-05-21T10:04:11.778Z,100208
2018-05-21T10:05:16.657Z,100214
2018-05-21T10:06:21.530Z,100208
2018-05-21T10:07:27.253Z,100211
2018-05-21T10:08:32.423Z,100200
2018-05-21T10:09:38.203Z,100205
2018-05-21T10:10:42.795Z,100208
2018-05-21T10:11:48.235Z,100220
2018-05-21T10:12:53.703Z,100203
2018-05-21T10:13:59.143Z,100214
2018-05-21T10:15:04.304Z,100214
2018-05-21T10:16:09.712Z,100214
2018-05-21T10:17:14.570Z,100208
2018-05-21T10:18:19.715Z,100205
2018-05-21T10:19:25.359Z,100203
2018-05-21T10:20:30.880Z,100200
2018-05-21T10:21:36.211Z,100203
2018-05-21T10:22:41.361Z,100200
2018-05-21T10:23:46.514Z,100191
2018-05-21T10:24:51.658Z,100214
2018-05-21T10:25:56.984Z,100197
2018-05-21T10:27:02.076Z,100197
2018-05-21T10:28:07.553Z,100185
2018-05-21T10:29:12.994Z,100194
2018-05-21T10:30:17.887Z,100188
2018-05-21T10:31:23.626Z,100179
2018-05-21T10:32:28.837Z,100188
2018-05-21T10:33:34.367Z,100182
2018-05-21T10:34:39.225Z,100185
2018-05-21T10:35:44.380Z,100179
2018-05-21T10:36:50.124Z,100176
2018-05-21T10:37:55.556Z,100185
2018-05-21T10:39:00.998Z,100168
2018-05-21T10:40:05.934Z,100182
2018-05-21T10:41:10.823Z,100179
2018-05-21T10:42:15.975Z,100173
2018-05-21T10:43:21.235Z,100162
2018-05-21T10:44:26.737Z,100162
2018-05-21T10:45:31.589Z,100159
2018-05-21T10:46:36.768Z,100171
2018-05-21T10:47:41.947Z,100153
2018-05-21T10:48:47.624Z,100142
2018-05-21T10:49:53.063Z,100165
2018-05-21T10:50:58.218Z,100150
2018-05-21T10:52:03.426Z,100156
2018-05-21T10:53:08.860Z,100150
2018-05-21T10:54:14.009Z,100162
2018-05-21T10:55:19.480Z,100159
2018-05-21T10:56:24.352Z,100150
2018-05-21T10:57:29.768Z,100150
2018-05-21T10:58:34.450Z,100150
2018-05-21T10:59:39.628Z,100140
2018-05-21T11:00:44.947Z,100150
2018-05-21T11:01:50.953Z,100145
2018-05-21T11:02:56.838Z,100147
2018-05-21T11:04:02.294Z,100145
2018-05-21T11:05:07.175Z,100145
2018-05-21T11:06:12.612Z,100142
2018-05-21T11:07:18.301Z,100140
2018-05-21T11:08:23.765Z,100140
2018-05-21T11:09:29.675Z,100142
2018-05-21T11:10:34.833Z,100140
2018-05-21T11:11:39.743Z,100142
2018-05-21T11:12:45.007Z,100142
2018-05-21T11:13:50.157Z,100140
2018-05-21T11:14:55.312Z,100137
2018-05-21T11:16:00.997Z,100125
2018-05-21T11:17:06.182Z,100128
2018-05-21T11:18:11.040Z,100128
2018-05-21T11:19:16.154Z,100116
2018-05-21T11:20:21.023Z,100116
2018-05-21T11:21:26.582Z,100122
2018-05-21T11:22:31.737Z,100131
2018-05-21T11:23:37.175Z,100125
2018-05-21T11:24:42.723Z,100122
2018-05-21T11:25:48.457Z,100128
2018-05-21T11:26:53.604Z,100125
2018-05-21T11:27:59.437Z,100113
2018-05-21T11:29:04.306Z,100125
2018-05-21T11:30:08.887Z,100119
2018-05-21T11:31:14.118Z,100116
2018-05-21T11:32:19.550Z,100105
2018-05-21T11:33:26.158Z,100113
2018-05-21T11:34:31.349Z,100108
2018-05-21T11:35:36.784Z,100102
2018-05-21T11:36:42.604Z,100119
2018-05-21T11:37:47.475Z,100119
2018-05-21T11:38:52.985Z,100113
2018-05-21T11:39:58.720Z,100119
2018-05-21T11:41:03.305Z,100110
2018-05-21T11:42:07.895Z,100102
2018-05-21T11:43:13.657Z,100105
2018-05-21T11:44:18.554Z,100102
2018-05-21T11:45:23.715Z,100102
2018-05-21T11:46:43.823Z,100102
2018-05-21T11:47:48.976Z,100096
2018-05-21T11:48:54.576Z,100099
2018-05-21T11:49:59.724Z,100081
2018-05-21T11:51:04.669Z,100078
2018-05-21T11:52:10.175Z,100090
2018-05-21T11:53:14.482Z,100073
2018-05-21T11:54:19.350Z,100068
2018-05-21T11:55:24.628Z,100081
2018-05-21T11:56:30.079Z,100062
2018-05-21T11:57:35.674Z,100073
2018-05-21T11:58:40.831Z,100065
2018-05-21T11:59:46.277Z,100073
2018-05-21T12:00:52.280Z,100076
2018-05-21T12:01:57.561Z,100073
2018-05-21T12:03:03.334Z,100078
2018-05-21T12:04:09.067Z,100076
2018-05-21T12:05:13.962Z,100073
2018-05-21T12:06:19.466Z,100076
2018-05-21T12:07:25.192Z,100073
2018-05-21T12:08:30.348Z,100076
2018-05-21T12:09:36.080Z,100065
2018-05-21T12:10:40.966Z,100065
2018-05-21T12:11:45.269Z,100068
2018-05-21T12:12:50.726Z,100078
2018-05-21T12:13:55.882Z,100068
2018-05-21T12:15:01.335Z,100068
2018-05-21T12:16:05.682Z,100065
2018-05-21T12:17:10.549Z,100050
2018-05-21T12:18:15.993Z,100056
2018-05-21T12:19:21.216Z,100059
2018-05-21T12:20:26.373Z,100062
2018-05-21T12:21:31.801Z,100076
2018-05-21T12:22:36.969Z,100068
2018-05-21T12:23:41.846Z,100065
2018-05-21T12:24:46.746Z,100068
2018-05-21T12:25:51.622Z,100068
2018-05-21T12:26:56.804Z,100078
2018-05-21T12:28:02.586Z,100065
2018-05-21T12:29:07.177Z,100073
2018-05-21T12:30:12.048Z,100059
2018-05-21T12:31:17.653Z,100056
2018-05-21T12:32:22.840Z,100068
2018-05-21T12:33:28.723Z,100073
2018-05-21T12:34:33.881Z,100056
2018-05-21T12:35:38.758Z,100053
2018-05-21T12:36:43.808Z,100053
2018-05-21T12:37:49.319Z,100053
2018-05-21T12:38:53.655Z,100033
2018-05-21T12:39:59.073Z,100039
2018-05-21T12:41:03.955Z,100056
2018-05-21T12:42:09.108Z,100050
2018-05-21T12:43:14.440Z,100042
2018-05-21T12:44:19.885Z,100036
2018-05-21T12:45:25.644Z,100042
2018-05-21T12:46:31.158Z,100033
2018-05-21T12:47:36.022Z,100030
2018-05-21T12:48:41.860Z,100036
2018-05-21T12:49:47.022Z,100039
2018-05-21T12:50:51.892Z,100044
2018-05-21T12:51:57.069Z,100044
2018-05-21T12:53:02.432Z,100027
2018-05-21T12:54:07.299Z,100036
2018-05-21T12:55:11.918Z,100036
2018-05-21T12:56:17.071Z,100036
2018-05-21T12:57:22.237Z,100036
2018-05-21T12:58:27.555Z,100044
2018-05-21T12:59:32.751Z,100044
2018-05-21T13:00:38.559Z,100021
2018-05-21T13:01:43.993Z,100036
2018-05-21T13:02:49.160Z,100024
2018-05-21T13:03:54.425Z,100036
2018-05-21T13:04:59.577Z,100036
2018-05-21T13:06:04.170Z,100036
2018-05-21T13:07:09.346Z,100018
2018-05-21T13:08:14.227Z,100015
2018-05-21T13:09:19.375Z,100015
2018-05-21T13:10:24.783Z,100018
2018-05-21T13:11:29.372Z,100024
2018-05-21T13:12:34.320Z,100021
2018-05-21T13:13:39.479Z,100018
2018-05-21T13:14:44.917Z,100024
2018-05-21T13:15:50.394Z,100021
2018-05-21T13:16:55.832Z,100030
2018-05-21T13:18:01.280Z,100024
2018-05-21T13:19:06.741Z,100033
2018-05-21T13:20:12.182Z,100027
2018-05-21T13:21:17.614Z,100021
2018-05-21T13:22:23.361Z,100036
2018-05-21T13:23:27.952Z,100024
2018-05-21T13:24:33.548Z,100015
2018-05-21T13:25:38.701Z,100018
2018-05-21T13:26:43.572Z,100018
2018-05-21T13:27:49.454Z,100012
2018-05-21T13:28:54.600Z,100009
2018-05-21T13:30:00.033Z,100012
2018-05-21T13:31:05.209Z,100009
2018-05-21T13:32:10.369Z,100001
2018-05-21T13:33:15.245Z,100004
2018-05-21T13:34:20.813Z,100009
2018-05-21T13:35:25.690Z,100004
2018-05-21T13:36:31.162Z,99998